createdAt,value
2023-05-07T00:00:23.932Z,7.46
2023-05-07T00:03:12.644Z,7.36
2023-05-07T00:05:40.312Z,7.55
2023-05-07T00:08:07.781Z,7.34
2023-05-07T00:10:35.030Z,7.40
2023-05-07T00:13:02.626Z,7.22
2023-05-07T00:15:29.921Z,7.43
2023-05-07T00:17:58.533Z,7.54
2023-05-07T00:20:25.960Z,7.44
2023-05-07T00:22:53.588Z,7.42
2023-05-07T00:25:20.854Z,7.55
2023-05-07T00:27:48.335Z,7.51
2023-05-07T00:30:15.922Z,7.52
2023-05-07T00:32:43.571Z,7.40
2023-05-07T00:35:11.094Z,7.56
2023-05-07T00:37:38.812Z,7.20
2023-05-07T00:40:08.417Z,7.47
2023-05-07T00:42:36.229Z,7.37
2023-05-07T00:45:03.973Z,7.22
2023-05-07T00:47:32.640Z,7.44
2023-05-07T00:50:00.068Z,7.32
2023-05-07T00:52:28.814Z,7.27
2023-05-07T00:54:56.457Z,7.37
2023-05-07T00:57:26.441Z,7.35
2023-05-07T00:59:53.907Z,7.19
2023-05-07T01:02:21.581Z,7.21
2023-05-07T01:04:48.786Z,7.24
2023-05-07T01:07:17.045Z,7.31
2023-05-07T01:09:44.333Z,7.07
2023-05-07T01:12:12.073Z,7.31
2023-05-07T01:14:39.428Z,6.95
2023-05-07T01:17:07.861Z,7.04
2023-05-07T01:19:35.900Z,7.03
2023-05-07T01:22:10.477Z,6.91
2023-05-07T01:24:47.464Z,6.95
2023-05-07T01:27:16.238Z,7.03
2023-05-07T01:29:44.002Z,6.79
2023-05-07T01:32:14.284Z,6.96
2023-05-07T01:34:41.984Z,6.68
2023-05-07T01:37:09.829Z,6.98
2023-05-07T01:39:40.923Z,6.87
2023-05-07T01:42:08.581Z,6.65
2023-05-07T01:44:36.176Z,6.77
2023-05-07T01:47:04.490Z,6.78
2023-05-07T01:49:31.930Z,6.94
2023-05-07T01:52:00.300Z,6.68
2023-05-07T01:54:31.638Z,6.42
2023-05-07T01:57:01.161Z,6.70
2023-05-07T01:59:28.458Z,6.42
2023-05-07T02:01:56.297Z,6.50
2023-05-07T02:04:23.670Z,6.56
2023-05-07T02:06:51.993Z,6.26
2023-05-07T02:09:20.494Z,6.18
2023-05-07T02:11:50.402Z,5.86
2023-05-07T02:14:21.219Z,5.79
2023-05-07T02:16:48.982Z,5.54
2023-05-07T02:19:17.299Z,5.58
2023-05-07T02:21:44.922Z,5.48
2023-05-07T02:24:12.158Z,5.45
2023-05-07T02:26:40.528Z,5.45
2023-05-07T02:29:08.119Z,5.51
2023-05-07T02:31:35.782Z,5.72
2023-05-07T02:34:03.322Z,5.83
2023-05-07T02:36:31.225Z,5.52
2023-05-07T02:39:04.879Z,5.77
2023-05-07T02:41:33.065Z,5.65
2023-05-07T02:44:00.339Z,5.48
2023-05-07T02:46:28.122Z,5.21
2023-05-07T02:49:01.969Z,5.16
2023-05-07T02:51:31.856Z,5.22
2023-05-07T02:54:02.313Z,4.99
2023-05-07T02:56:31.364Z,5.14
2023-05-07T02:58:58.968Z,5.19
2023-05-07T03:01:30.364Z,5.18
2023-05-07T03:04:06.655Z,5.18
2023-05-07T03:06:34.305Z,5.20
2023-05-07T03:09:01.581Z,5.09
2023-05-07T03:11:29.533Z,5.27
2023-05-07T03:13:56.724Z,5.37
2023-05-07T03:16:24.352Z,5.57
2023-05-07T03:18:51.804Z,5.59
2023-05-07T03:21:19.322Z,5.71
2023-05-07T03:23:46.558Z,5.72
2023-05-07T03:26:14.502Z,6.49
2023-05-07T03:28:42.546Z,6.77
2023-05-07T03:31:13.447Z,7.90
2023-05-07T03:33:55.442Z,8.89
2023-05-07T03:36:23.698Z,9.27
2023-05-07T03:38:51.643Z,9.58
2023-05-07T03:41:22.113Z,10.15
2023-05-07T03:43:49.482Z,10.75
2023-05-07T03:46:17.395Z,11.62
2023-05-07T03:48:45.713Z,11.81
2023-05-07T03:51:15.167Z,12.18
2023-05-07T03:53:42.656Z,13.27
2023-05-07T03:56:10.549Z,13.67
2023-05-07T03:58:40.214Z,13.88
2023-05-07T04:01:10.809Z,14.77
2023-05-07T04:03:38.278Z,15.54
2023-05-07T04:06:06.209Z,16.79
2023-05-07T04:08:35.634Z,16.68
2023-05-07T04:11:04.508Z,16.75
2023-05-07T04:13:33.725Z,18.27
2023-05-07T04:16:05.302Z,18.84
2023-05-07T04:18:35.344Z,17.81
2023-05-07T04:21:02.932Z,19.43
2023-05-07T04:23:30.321Z,19.18
2023-05-07T04:26:01.935Z,17.92
2023-05-07T04:28:37.666Z,17.21
2023-05-07T04:31:05.479Z,15.50
2023-05-07T04:33:34.929Z,15.17
2023-05-07T04:36:04.486Z,16.62
2023-05-07T04:38:35.133Z,18.16
2023-05-07T04:41:06.361Z,17.91
2023-05-07T04:43:36.958Z,20.51
2023-05-07T04:46:04.512Z,20.06
2023-05-07T04:48:31.995Z,19.41
2023-05-07T04:51:01.156Z,19.61
2023-05-07T04:53:28.687Z,19.47
2023-05-07T04:55:58.499Z,20.44
2023-05-07T04:58:32.963Z,22.07
2023-05-07T05:01:01.526Z,21.78
2023-05-07T05:03:29.672Z,22.89
2023-05-07T05:06:00.428Z,23.65
2023-05-07T05:08:31.675Z,24.40
2023-05-07T05:10:59.321Z,23.27
2023-05-07T05:13:26.499Z,22.47
2023-05-07T05:15:54.211Z,23.32
2023-05-07T05:18:21.967Z,22.21
2023-05-07T05:20:49.665Z,19.47
2023-05-07T05:23:17.296Z,19.71
2023-05-07T05:25:45.394Z,24.42
2023-05-07T05:28:15.006Z,24.90
2023-05-07T05:30:42.545Z,25.64
2023-05-07T05:33:10.325Z,24.36
2023-05-07T05:35:38.001Z,21.65
2023-05-07T05:38:08.026Z,20.51
2023-05-07T05:40:35.635Z,24.70
2023-05-07T05:43:03.254Z,27.42
2023-05-07T05:45:31.094Z,27.30
2023-05-07T05:47:58.825Z,24.90
2023-05-07T05:50:26.532Z,18.34
2023-05-07T05:52:55.250Z,22.76
2023-05-07T05:55:23.606Z,25.43
2023-05-07T05:57:51.892Z,18.29
2023-05-07T06:00:23.424Z,17.01
2023-05-07T06:02:58.694Z,22.20
2023-05-07T06:05:27.405Z,22.50
2023-05-07T06:07:57.255Z,23.93
2023-05-07T06:10:25.518Z,24.48
2023-05-07T06:12:53.062Z,23.41
2023-05-07T06:15:20.927Z,25.34
2023-05-07T06:17:50.345Z,25.54
2023-05-07T06:20:18.380Z,27.22
2023-05-07T06:22:45.995Z,29.07
2023-05-07T06:25:15.851Z,30.88
2023-05-07T06:27:44.284Z,31.09
2023-05-07T06:30:12.438Z,28.12
2023-05-07T06:32:42.032Z,31.32
2023-05-07T06:35:10.483Z,30.52
2023-05-07T06:37:40.656Z,28.36
2023-05-07T06:40:10.077Z,27.95
2023-05-07T06:42:39.805Z,33.18
2023-05-07T06:45:39.592Z,28.29
2023-05-07T06:48:09.789Z,26.05
2023-05-07T06:50:47.228Z,23.88
2023-05-07T06:53:14.534Z,26.06
2023-05-07T06:55:42.814Z,27.32
2023-05-07T06:58:11.052Z,26.26
2023-05-07T07:00:39.167Z,23.77
2023-05-07T07:03:06.467Z,24.38
2023-05-07T07:05:34.185Z,27.88
2023-05-07T07:08:03.997Z,27.50
2023-05-07T07:10:31.605Z,29.53
2023-05-07T07:12:59.074Z,29.13
2023-05-07T07:15:27.574Z,30.23
2023-05-07T07:17:56.540Z,28.52
2023-05-07T07:20:25.459Z,30.75
2023-05-07T07:22:52.998Z,27.66
2023-05-07T07:25:20.695Z,27.11
2023-05-07T07:27:49.304Z,28.38
2023-05-07T07:30:17.642Z,25.78
2023-05-07T07:32:48.356Z,28.08
2023-05-07T07:35:17.149Z,28.02
2023-05-07T07:37:45.490Z,30.69
2023-05-07T07:40:15.218Z,33.69
2023-05-07T07:42:42.761Z,32.56
2023-05-07T07:45:11.772Z,31.19
2023-05-07T07:47:43.293Z,31.42
2023-05-07T07:50:12.045Z,30.56
2023-05-07T07:52:43.075Z,29.24
2023-05-07T07:55:11.861Z,29.28
2023-05-07T07:57:40.150Z,28.65
2023-05-07T08:00:08.645Z,25.72
2023-05-07T08:02:44.192Z,28.20
2023-05-07T08:05:18.748Z,25.05
2023-05-07T08:07:52.948Z,26.60
2023-05-07T08:10:24.459Z,26.38
2023-05-07T08:12:57.963Z,25.92
2023-05-07T08:15:25.597Z,24.57
2023-05-07T08:17:52.891Z,24.06
2023-05-07T08:20:21.462Z,23.74
2023-05-07T08:22:48.992Z,23.11
2023-05-07T08:25:16.684Z,24.06
2023-05-07T08:27:45.421Z,25.67
2023-05-07T08:30:14.547Z,25.02
2023-05-07T08:32:42.272Z,24.92
2023-05-07T08:35:10.845Z,26.46
2023-05-07T08:37:38.349Z,26.32
2023-05-07T08:40:10.204Z,27.80
2023-05-07T08:42:41.529Z,27.39
2023-05-07T08:45:11.772Z,25.76
2023-05-07T08:47:53.267Z,26.40
2023-05-07T08:50:23.625Z,27.06
2023-05-07T08:52:52.212Z,27.24
2023-05-07T08:55:21.634Z,26.56
2023-05-07T08:57:49.551Z,26.73
2023-05-07T09:00:18.617Z,24.95
2023-05-07T09:02:49.623Z,24.45
2023-05-07T09:05:17.404Z,23.65
2023-05-07T09:07:44.987Z,23.72
2023-05-07T09:10:14.686Z,24.45
2023-05-07T09:12:43.643Z,24.25
2023-05-07T09:15:13.861Z,24.65
2023-05-07T09:17:43.461Z,25.68
2023-05-07T09:20:11.459Z,26.10
2023-05-07T09:22:40.154Z,23.99
2023-05-07T09:25:12.034Z,22.40
2023-05-07T09:27:40.426Z,24.68
2023-05-07T09:30:08.419Z,23.84
2023-05-07T09:32:39.358Z,25.01
2023-05-07T09:35:18.018Z,22.38
2023-05-07T09:37:49.059Z,22.65
2023-05-07T09:40:31.382Z,23.05
2023-05-07T09:43:14.798Z,24.39
2023-05-07T09:45:56.030Z,22.39
2023-05-07T09:48:26.880Z,22.57
2023-05-07T09:51:01.001Z,22.34
2023-05-07T09:53:32.088Z,20.94
2023-05-07T09:56:05.156Z,22.68
2023-05-07T09:58:34.624Z,22.98
2023-05-07T10:01:03.649Z,22.68
2023-05-07T10:03:33.728Z,24.06
2023-05-07T10:06:06.335Z,21.54
2023-05-07T10:08:34.372Z,21.09
2023-05-07T10:11:05.156Z,20.31
2023-05-07T10:13:36.797Z,17.93
2023-05-07T10:16:05.878Z,16.43
2023-05-07T10:18:40.559Z,15.69
2023-05-07T10:21:24.850Z,15.82
2023-05-07T10:24:01.553Z,16.15
2023-05-07T10:26:33.391Z,15.36
2023-05-07T10:29:39.398Z,17.01
2023-05-07T10:32:28.202Z,17.37
2023-05-07T10:35:00.187Z,16.74
2023-05-07T10:37:28.023Z,16.65
2023-05-07T10:39:56.058Z,16.12
2023-05-07T10:42:24.433Z,17.41
2023-05-07T10:44:54.390Z,17.45
2023-05-07T10:47:26.266Z,16.72
2023-05-07T10:50:06.590Z,17.01
2023-05-07T10:52:37.825Z,17.02
2023-05-07T10:55:18.814Z,17.23
2023-05-07T10:57:57.450Z,15.81
2023-05-07T11:00:38.632Z,16.06
2023-05-07T11:03:11.846Z,16.26
2023-05-07T11:06:17.095Z,16.28
2023-05-07T11:09:02.298Z,15.43
2023-05-07T11:11:54.213Z,14.91
2023-05-07T11:14:42.365Z,14.86
2023-05-07T11:17:13.683Z,13.99
2023-05-07T11:19:54.092Z,14.84
2023-05-07T11:22:34.193Z,15.05
2023-05-07T11:25:22.526Z,14.94
2023-05-07T11:28:06.330Z,14.75
2023-05-07T11:30:35.580Z,14.48
2023-05-07T11:33:05.687Z,14.49
2023-05-07T11:35:37.178Z,14.84
2023-05-07T11:38:07.257Z,14.18
2023-05-07T11:40:36.296Z,14.24
2023-05-07T11:43:12.245Z,14.61
2023-05-07T11:45:39.839Z,14.15
2023-05-07T11:48:07.113Z,14.29
2023-05-07T11:50:34.598Z,14.06
2023-05-07T11:53:01.836Z,13.72
2023-05-07T11:55:29.644Z,13.90
2023-05-07T11:57:56.822Z,13.94
2023-05-07T12:00:24.318Z,14.10
2023-05-07T12:02:51.785Z,14.06
2023-05-07T12:05:19.314Z,13.35
2023-05-07T12:07:46.585Z,13.40
2023-05-07T12:10:14.721Z,13.53
2023-05-07T12:12:45.693Z,13.53
2023-05-07T12:15:17.514Z,13.63
2023-05-07T12:17:45.508Z,13.40
2023-05-07T12:20:14.000Z,13.52
2023-05-07T12:22:42.206Z,13.15
2023-05-07T12:25:10.574Z,13.72
2023-05-07T12:27:40.286Z,13.40
2023-05-07T12:30:11.644Z,13.50
2023-05-07T12:32:38.997Z,13.42
2023-05-07T12:35:07.846Z,13.07
2023-05-07T12:37:36.888Z,13.24
2023-05-07T12:40:09.889Z,13.46
2023-05-07T12:42:38.548Z,13.87
2023-05-07T12:45:24.260Z,13.49
2023-05-07T12:47:51.566Z,13.48
2023-05-07T12:50:19.249Z,13.17
2023-05-07T12:52:48.802Z,13.14
2023-05-07T12:55:17.839Z,13.09
2023-05-07T12:57:49.676Z,13.13
2023-05-07T13:00:17.534Z,12.97
2023-05-07T13:02:46.531Z,13.06
2023-05-07T13:05:14.461Z,13.15
2023-05-07T13:07:42.778Z,13.08
2023-05-07T13:10:10.995Z,13.60
2023-05-07T13:12:38.224Z,13.41
2023-05-07T13:15:06.279Z,13.14
2023-05-07T13:17:33.559Z,13.46
2023-05-07T13:20:01.196Z,13.49
2023-05-07T13:22:28.417Z,13.45
2023-05-07T13:24:55.906Z,13.42
2023-05-07T13:27:23.221Z,13.15
2023-05-07T13:29:50.930Z,13.01
2023-05-07T13:32:18.240Z,13.14
2023-05-07T13:34:45.873Z,12.94
2023-05-07T13:37:13.078Z,12.75
2023-05-07T13:39:41.940Z,12.82
2023-05-07T13:42:09.198Z,12.75
2023-05-07T13:44:36.796Z,12.98
2023-05-07T13:47:03.996Z,12.71
2023-05-07T13:49:31.642Z,12.80
2023-05-07T13:51:58.910Z,13.09
2023-05-07T13:54:26.413Z,13.06
2023-05-07T13:56:53.593Z,13.11
2023-05-07T13:59:21.808Z,13.00
2023-05-07T14:01:49.109Z,12.82
2023-05-07T14:04:16.629Z,12.72
2023-05-07T14:06:44.510Z,12.61
2023-05-07T14:09:14.372Z,12.94
2023-05-07T14:11:42.047Z,13.00
2023-05-07T14:14:12.894Z,13.08
2023-05-07T14:16:40.226Z,12.98
2023-05-07T14:19:07.714Z,13.06
2023-05-07T14:21:35.028Z,12.79
2023-05-07T14:24:02.603Z,12.66
2023-05-07T14:26:30.340Z,12.67
2023-05-07T14:28:59.439Z,12.61
2023-05-07T14:31:27.053Z,12.59
2023-05-07T14:33:54.727Z,12.64
2023-05-07T14:36:23.879Z,12.40
2023-05-07T14:38:51.462Z,11.97
2023-05-07T14:41:18.775Z,11.90
2023-05-07T14:43:50.990Z,12.18
2023-05-07T14:46:19.259Z,12.27
2023-05-07T14:48:47.358Z,12.47
2023-05-07T14:51:14.922Z,12.15
2023-05-07T14:53:43.089Z,12.19
2023-05-07T14:56:10.688Z,11.78
2023-05-07T14:58:39.031Z,12.06
2023-05-07T15:01:06.277Z,12.16
2023-05-07T15:03:35.695Z,11.77
2023-05-07T15:06:03.837Z,11.89
2023-05-07T15:08:31.367Z,12.08
2023-05-07T15:10:58.639Z,12.21
2023-05-07T15:13:26.189Z,12.21
2023-05-07T15:15:53.464Z,12.16
2023-05-07T15:18:22.912Z,12.01
2023-05-07T15:20:50.523Z,12.23
2023-05-07T15:23:18.122Z,12.06
2023-05-07T15:25:50.283Z,11.60
2023-05-07T15:28:20.577Z,11.86
2023-05-07T15:30:47.906Z,11.87
2023-05-07T15:33:15.749Z,11.89
2023-05-07T15:35:43.016Z,11.82
2023-05-07T15:38:10.770Z,11.76
2023-05-07T15:40:42.640Z,11.57
2023-05-07T15:43:11.128Z,11.83
2023-05-07T15:45:42.529Z,11.91
2023-05-07T15:48:11.543Z,11.91
2023-05-07T15:50:39.292Z,11.99
2023-05-07T15:53:06.890Z,11.77
2023-05-07T15:55:34.501Z,11.72
2023-05-07T15:58:03.099Z,11.55
2023-05-07T16:00:30.733Z,11.40
2023-05-07T16:02:58.644Z,11.33
2023-05-07T16:05:26.083Z,11.75
2023-05-07T16:07:53.724Z,11.86
2023-05-07T16:10:20.960Z,11.93
2023-05-07T16:12:48.459Z,11.50
2023-05-07T16:15:15.859Z,11.56
2023-05-07T16:17:46.722Z,11.86
2023-05-07T16:20:15.486Z,11.89
2023-05-07T16:22:45.594Z,11.45
2023-05-07T16:25:14.819Z,11.57
2023-05-07T16:27:42.569Z,11.26
2023-05-07T16:30:10.172Z,11.35
2023-05-07T16:32:37.840Z,11.54
2023-05-07T16:35:06.454Z,11.09
2023-05-07T16:37:34.582Z,11.72
2023-05-07T16:40:02.710Z,11.42
2023-05-07T16:42:30.842Z,11.35
2023-05-07T16:44:58.084Z,11.25
2023-05-07T16:47:25.582Z,11.21
2023-05-07T16:49:53.043Z,11.51
2023-05-07T16:52:20.675Z,11.09
2023-05-07T16:54:48.128Z,11.32
2023-05-07T16:57:15.908Z,11.42
2023-05-07T16:59:43.215Z,11.26
2023-05-07T17:02:10.805Z,11.23
2023-05-07T17:04:38.138Z,11.35
2023-05-07T17:07:06.643Z,11.21
2023-05-07T17:09:34.321Z,11.27
2023-05-07T17:12:02.875Z,11.34
2023-05-07T17:14:30.086Z,11.30
2023-05-07T17:16:57.601Z,11.31
2023-05-07T17:19:24.770Z,11.38
2023-05-07T17:21:52.223Z,11.52
2023-05-07T17:24:19.392Z,11.29
2023-05-07T17:26:48.458Z,11.39
2023-05-07T17:29:15.764Z,11.28
2023-05-07T17:31:43.349Z,11.47
2023-05-07T17:34:10.648Z,11.48
2023-05-07T17:36:38.125Z,11.45
2023-05-07T17:39:05.311Z,11.35
2023-05-07T17:41:36.203Z,11.36
2023-05-07T17:44:04.024Z,11.06
2023-05-07T17:46:36.876Z,11.33
2023-05-07T17:49:16.239Z,11.25
2023-05-07T17:51:53.958Z,11.23
2023-05-07T17:54:24.347Z,10.97
2023-05-07T17:56:52.057Z,10.92
2023-05-07T17:59:19.648Z,10.82
2023-05-07T18:01:47.394Z,10.69
2023-05-07T18:04:14.905Z,10.74
2023-05-07T18:06:42.843Z,10.58
2023-05-07T18:09:10.203Z,10.52
2023-05-07T18:11:38.111Z,10.42
2023-05-07T18:14:05.527Z,10.28
2023-05-07T18:16:33.240Z,10.27
2023-05-07T18:19:00.615Z,10.29
2023-05-07T18:21:28.199Z,10.22
2023-05-07T18:23:55.389Z,10.26
2023-05-07T18:26:22.954Z,9.99
2023-05-07T18:28:50.184Z,10.12
2023-05-07T18:31:17.796Z,10.11
2023-05-07T18:33:45.038Z,10.00
2023-05-07T18:36:12.560Z,10.04
2023-05-07T18:38:39.859Z,10.04
2023-05-07T18:41:07.516Z,9.79
2023-05-07T18:43:34.772Z,9.86
2023-05-07T18:46:02.336Z,9.74
2023-05-07T18:48:29.639Z,9.84
2023-05-07T18:50:57.308Z,9.84
2023-05-07T18:53:24.945Z,9.87
2023-05-07T18:55:53.191Z,9.71
2023-05-07T18:58:20.689Z,9.72
2023-05-07T19:00:49.028Z,9.55
2023-05-07T19:03:17.281Z,9.54
2023-05-07T19:05:45.793Z,9.66
2023-05-07T19:08:13.565Z,9.47
2023-05-07T19:10:41.158Z,9.58
2023-05-07T19:13:08.435Z,9.59
2023-05-07T19:15:35.955Z,9.53
2023-05-07T19:18:03.508Z,9.53
2023-05-07T19:20:31.195Z,9.48
2023-05-07T19:22:58.442Z,9.45
2023-05-07T19:25:26.092Z,9.43
2023-05-07T19:27:53.298Z,9.52
2023-05-07T19:30:20.966Z,9.50
2023-05-07T19:32:48.373Z,9.53
2023-05-07T19:35:16.050Z,9.41
2023-05-07T19:37:43.359Z,9.22
2023-05-07T19:40:11.510Z,9.28
2023-05-07T19:42:38.755Z,9.33
2023-05-07T19:45:06.799Z,9.31
2023-05-07T19:47:34.339Z,9.26
2023-05-07T19:50:01.952Z,9.27
2023-05-07T19:52:29.149Z,9.12
2023-05-07T19:54:56.764Z,9.26
2023-05-07T19:57:24.012Z,9.40
2023-05-07T19:59:51.517Z,9.03
2023-05-07T20:02:18.829Z,9.24
2023-05-07T20:04:46.551Z,9.17
2023-05-07T20:07:14.017Z,9.32
2023-05-07T20:09:41.908Z,8.85
2023-05-07T20:12:09.198Z,9.00
2023-05-07T20:14:36.739Z,9.08
2023-05-07T20:17:04.041Z,8.82
2023-05-07T20:19:31.557Z,8.95
2023-05-07T20:21:58.756Z,8.95
2023-05-07T20:24:26.337Z,9.02
2023-05-07T20:26:53.586Z,8.87
2023-05-07T20:29:22.827Z,8.97
2023-05-07T20:31:50.190Z,9.06
2023-05-07T20:34:17.729Z,8.99
2023-05-07T20:36:46.425Z,8.88
2023-05-07T20:39:16.091Z,8.85
2023-05-07T20:41:46.453Z,8.74
2023-05-07T20:44:13.941Z,8.64
2023-05-07T20:46:41.244Z,8.78
2023-05-07T20:49:09.951Z,9.02
2023-05-07T20:51:37.461Z,8.98
2023-05-07T20:54:05.125Z,9.03
2023-05-07T20:56:32.397Z,8.75
2023-05-07T20:58:59.955Z,9.00
2023-05-07T21:01:27.311Z,9.06
2023-05-07T21:03:54.923Z,9.03
2023-05-07T21:06:22.110Z,9.08
2023-05-07T21:08:49.607Z,8.99
2023-05-07T21:11:17.027Z,8.83
2023-05-07T21:13:44.905Z,8.90
2023-05-07T21:16:12.420Z,8.92
2023-05-07T21:18:40.198Z,8.59
2023-05-07T21:21:08.583Z,9.03
2023-05-07T21:23:36.837Z,8.75
2023-05-07T21:26:04.400Z,8.92
2023-05-07T21:28:32.028Z,8.86
2023-05-07T21:30:59.252Z,8.88
2023-05-07T21:33:26.823Z,8.56
2023-05-07T21:35:54.243Z,8.70
2023-05-07T21:38:21.795Z,8.87
2023-05-07T21:40:49.078Z,8.60
2023-05-07T21:43:16.646Z,8.75
2023-05-07T21:45:43.988Z,8.84
2023-05-07T21:48:13.536Z,8.85
2023-05-07T21:50:40.831Z,8.75
2023-05-07T21:53:08.447Z,8.61
2023-05-07T21:55:35.883Z,8.62
2023-05-07T21:58:05.988Z,8.29
2023-05-07T22:00:33.787Z,8.53
2023-05-07T22:03:01.422Z,8.34
2023-05-07T22:05:28.826Z,8.05
2023-05-07T22:07:56.398Z,8.14
2023-05-07T22:10:24.118Z,8.16
2023-05-07T22:12:51.630Z,7.94
2023-05-07T22:15:19.039Z,7.70
2023-05-07T22:17:46.561Z,7.69
2023-05-07T22:20:14.253Z,7.82
2023-05-07T22:22:56.038Z,7.62
2023-05-07T22:25:24.387Z,7.52
2023-05-07T22:27:52.386Z,7.49
2023-05-07T22:30:19.644Z,7.41
2023-05-07T22:32:47.414Z,7.16
2023-05-07T22:35:15.056Z,7.41
2023-05-07T22:37:42.614Z,7.37
2023-05-07T22:40:10.450Z,7.38
2023-05-07T22:42:38.071Z,7.30
2023-05-07T22:45:05.784Z,7.32
2023-05-07T22:47:33.484Z,7.34
2023-05-07T22:50:01.099Z,7.32
2023-05-07T22:52:28.762Z,7.07
2023-05-07T22:54:55.961Z,7.15
2023-05-07T22:57:23.497Z,6.99
2023-05-07T22:59:54.619Z,7.15
2023-05-07T23:02:23.349Z,7.17
2023-05-07T23:04:50.636Z,7.24
2023-05-07T23:07:18.141Z,6.95
2023-05-07T23:09:45.496Z,6.90
2023-05-07T23:12:13.073Z,7.01
2023-05-07T23:14:40.333Z,6.77
2023-05-07T23:17:08.044Z,6.75
2023-05-07T23:19:35.339Z,6.95
2023-05-07T23:22:02.922Z,7.01
2023-05-07T23:24:30.095Z,7.03
2023-05-07T23:26:57.565Z,6.98
2023-05-07T23:29:24.805Z,6.57
2023-05-07T23:31:52.283Z,6.96
2023-05-07T23:34:24.094Z,6.93
2023-05-07T23:36:51.800Z,6.68
2023-05-07T23:39:19.591Z,6.86
2023-05-07T23:41:47.209Z,6.84
2023-05-07T23:44:16.625Z,6.75
2023-05-07T23:46:44.839Z,6.73
2023-05-07T23:49:12.295Z,6.71
2023-05-07T23:51:39.874Z,6.66
2023-05-07T23:54:07.384Z,6.63
2023-05-07T23:56:35.036Z,6.52
2023-05-07T23:59:02.227Z,6.54
